createdAt,value
2022-12-09T00:02:23.176Z,16.09
2022-12-09T00:07:26.664Z,16.08
2022-12-09T00:12:29.921Z,16.04
2022-12-09T00:17:33.482Z,16.06
2022-12-09T00:22:37.015Z,16.06
2022-12-09T00:27:40.626Z,16.06
2022-12-09T00:32:44.653Z,16.01
2022-12-09T00:37:49.543Z,15.97
2022-12-09T00:42:53.078Z,15.98
2022-12-09T00:47:57.504Z,15.98
2022-12-09T00:53:02.422Z,15.95
2022-12-09T00:58:06.468Z,15.92
2022-12-09T01:03:19.017Z,15.87
2022-12-09T01:08:23.224Z,15.88
2022-12-09T01:13:27.598Z,15.87
2022-12-09T01:18:32.222Z,15.84
2022-12-09T01:23:36.144Z,15.86
2022-12-09T01:28:40.388Z,15.87
2022-12-09T01:33:44.727Z,15.85
2022-12-09T01:38:50.032Z,15.81
2022-12-09T01:44:11.895Z,15.79
2022-12-09T01:49:31.209Z,15.78
2022-12-09T01:54:34.765Z,15.78
2022-12-09T01:59:41.277Z,15.78
2022-12-09T02:04:46.566Z,15.80
2022-12-09T02:09:52.575Z,15.80
2022-12-09T02:15:19.683Z,15.77
2022-12-09T02:20:39.302Z,15.72
2022-12-09T02:25:55.649Z,15.75
2022-12-09T02:31:18.371Z,15.75
2022-12-09T02:36:29.045Z,15.74
2022-12-09T02:41:36.179Z,15.73
2022-12-09T02:46:42.756Z,15.72
2022-12-09T02:51:50.509Z,15.70
2022-12-09T02:56:58.534Z,15.69
2022-12-09T03:02:11.235Z,15.66
2022-12-09T03:07:17.667Z,15.64
2022-12-09T03:12:22.693Z,15.63
2022-12-09T03:17:34.064Z,15.63
2022-12-09T03:22:41.385Z,15.62
2022-12-09T03:27:50.540Z,15.62
2022-12-09T03:32:56.084Z,15.60
2022-12-09T03:38:02.769Z,15.61
2022-12-09T03:43:13.342Z,15.57
2022-12-09T03:48:17.850Z,15.55
2022-12-09T03:53:50.943Z,15.55
2022-12-09T03:58:58.439Z,15.51
2022-12-09T04:04:02.468Z,15.49
2022-12-09T04:09:06.856Z,15.46
2022-12-09T04:14:15.582Z,15.43
2022-12-09T04:19:19.810Z,15.36
2022-12-09T04:24:23.317Z,15.30
2022-12-09T04:29:26.986Z,15.21
2022-12-09T04:34:30.420Z,15.20
2022-12-09T04:39:34.343Z,15.20
2022-12-09T04:44:38.610Z,15.17
2022-12-09T04:49:42.793Z,15.15
2022-12-09T04:54:46.881Z,15.16
2022-12-09T04:59:51.114Z,15.16
2022-12-09T05:04:54.962Z,15.23
2022-12-09T05:09:59.478Z,15.35
2022-12-09T05:15:03.348Z,15.45
2022-12-09T05:20:08.348Z,15.56
2022-12-09T05:25:12.139Z,15.66
2022-12-09T05:30:16.463Z,15.74
2022-12-09T05:35:19.870Z,15.83
2022-12-09T05:40:23.633Z,15.87
2022-12-09T05:45:27.477Z,15.94
2022-12-09T05:50:31.145Z,15.97
2022-12-09T05:55:35.020Z,15.96
2022-12-09T06:00:38.718Z,16.03
2022-12-09T06:05:43.309Z,16.11
2022-12-09T06:10:47.367Z,16.16
2022-12-09T06:15:51.237Z,16.25
2022-12-09T06:20:54.703Z,16.40
2022-12-09T06:25:58.343Z,16.55
2022-12-09T06:31:02.808Z,16.70
2022-12-09T06:36:07.907Z,16.79
2022-12-09T06:41:14.264Z,16.81
2022-12-09T06:46:21.404Z,16.84
2022-12-09T06:51:26.102Z,16.90
2022-12-09T06:56:29.642Z,16.89
2022-12-09T07:01:33.200Z,16.89
2022-12-09T07:06:44.406Z,16.95
2022-12-09T07:11:48.891Z,16.97
2022-12-09T07:16:52.958Z,17.06
2022-12-09T07:21:57.150Z,17.14
2022-12-09T07:27:06.159Z,17.27
2022-12-09T07:32:12.344Z,17.48
2022-12-09T07:37:16.365Z,17.61
2022-12-09T07:42:19.805Z,17.61
2022-12-09T07:47:30.252Z,17.65
2022-12-09T07:52:34.451Z,17.69
2022-12-09T07:57:38.839Z,17.75
2022-12-09T08:02:44.084Z,17.81
2022-12-09T08:07:48.456Z,17.86
2022-12-09T08:12:53.547Z,17.93
2022-12-09T08:18:00.279Z,17.98
2022-12-09T08:23:05.651Z,18.10
2022-12-09T08:28:09.489Z,18.20
2022-12-09T08:33:13.040Z,18.30
2022-12-09T08:38:16.793Z,18.37
2022-12-09T08:43:21.440Z,18.43
2022-12-09T08:48:25.467Z,18.51
2022-12-09T08:53:29.148Z,18.55
2022-12-09T08:58:34.326Z,18.54
2022-12-09T09:03:38.315Z,18.60
2022-12-09T09:08:42.339Z,18.64
2022-12-09T09:13:48.825Z,18.68
2022-12-09T09:18:54.238Z,18.73
2022-12-09T09:23:57.972Z,18.79
2022-12-09T09:29:01.549Z,18.81
2022-12-09T09:34:05.702Z,18.80
2022-12-09T09:39:09.822Z,18.84
2022-12-09T09:44:36.072Z,18.79
2022-12-09T09:49:56.326Z,18.74
2022-12-09T09:55:06.883Z,18.68
2022-12-09T10:00:25.022Z,18.71
2022-12-09T10:05:36.123Z,18.65
2022-12-09T10:10:49.428Z,18.69
2022-12-09T10:16:14.405Z,18.70
2022-12-09T10:21:20.892Z,18.70
2022-12-09T10:26:29.201Z,18.74
2022-12-09T10:31:34.434Z,18.79
2022-12-09T10:36:39.600Z,18.80
2022-12-09T10:41:50.113Z,18.85
2022-12-09T10:47:05.129Z,18.84
2022-12-09T10:52:09.317Z,18.88
2022-12-09T10:57:13.013Z,18.86
2022-12-09T11:02:22.351Z,18.89
2022-12-09T11:07:28.923Z,18.92
2022-12-09T11:12:40.622Z,18.94
2022-12-09T11:17:57.674Z,18.94
2022-12-09T11:23:05.270Z,18.95
2022-12-09T11:28:18.197Z,18.98
2022-12-09T11:33:29.788Z,18.97
2022-12-09T11:38:48.567Z,18.98
2022-12-09T11:43:57.114Z,18.97
2022-12-09T11:49:18.674Z,18.97
2022-12-09T11:54:32.466Z,18.97
2022-12-09T11:59:45.508Z,18.99
2022-12-09T12:05:03.444Z,19.02
2022-12-09T12:10:18.055Z,19.02
2022-12-09T12:15:32.650Z,19.04
2022-12-09T12:20:55.249Z,19.03
2022-12-09T12:26:10.967Z,18.97
2022-12-09T12:31:38.986Z,18.97
2022-12-09T12:36:53.166Z,18.94
2022-12-09T12:42:22.720Z,18.91
2022-12-09T12:47:28.835Z,18.86
2022-12-09T12:52:57.449Z,18.78
2022-12-09T12:58:31.183Z,18.70
2022-12-09T13:03:48.951Z,18.58
2022-12-09T13:09:03.401Z,18.55
2022-12-09T13:14:16.817Z,18.46
2022-12-09T13:19:44.361Z,18.40
2022-12-09T13:25:14.148Z,18.35
2022-12-09T13:30:27.223Z,18.27
2022-12-09T13:35:34.026Z,18.24
2022-12-09T13:40:38.807Z,18.14
2022-12-09T13:45:44.889Z,18.05
2022-12-09T13:50:51.078Z,17.97
2022-12-09T13:56:08.105Z,17.87
2022-12-09T14:01:12.250Z,17.77
2022-12-09T14:06:29.926Z,17.66
2022-12-09T14:11:43.763Z,17.55
2022-12-09T14:16:47.331Z,17.46
2022-12-09T14:22:19.080Z,17.34
2022-12-09T14:27:31.711Z,17.26
2022-12-09T14:32:36.352Z,17.15
2022-12-09T14:38:02.901Z,17.05
2022-12-09T14:43:50.141Z,16.95
2022-12-09T14:48:59.111Z,16.88
2022-12-09T14:54:13.293Z,16.82
2022-12-09T14:59:23.830Z,16.77
2022-12-09T15:04:42.059Z,16.70
2022-12-09T15:09:59.470Z,16.68
2022-12-09T15:15:38.100Z,16.63
2022-12-09T15:20:42.489Z,16.60
2022-12-09T15:25:53.296Z,16.61
2022-12-09T15:31:00.650Z,16.62
2022-12-09T15:36:14.715Z,16.62
2022-12-09T15:41:20.023Z,16.58
2022-12-09T15:46:26.744Z,16.57
2022-12-09T15:51:31.017Z,16.55
2022-12-09T15:56:44.153Z,16.55
2022-12-09T16:01:51.003Z,16.52
2022-12-09T16:06:54.945Z,16.47
2022-12-09T16:11:58.214Z,16.49
2022-12-09T16:17:04.071Z,16.51
2022-12-09T16:22:11.713Z,16.52
2022-12-09T16:27:20.437Z,16.49
2022-12-09T16:32:30.693Z,16.51
2022-12-09T16:37:33.979Z,16.49
2022-12-09T16:42:40.870Z,16.45
2022-12-09T16:47:45.456Z,16.41
2022-12-09T16:52:49.339Z,16.36
2022-12-09T16:57:54.314Z,16.33
2022-12-09T17:03:06.678Z,16.29
2022-12-09T17:08:10.245Z,16.27
2022-12-09T17:13:13.916Z,16.22
2022-12-09T17:18:17.319Z,16.17
2022-12-09T17:23:20.855Z,16.09
2022-12-09T17:28:29.765Z,16.06
2022-12-09T17:33:33.736Z,16.01
2022-12-09T17:38:38.736Z,16.00
2022-12-09T17:43:43.416Z,15.96
2022-12-09T17:48:46.790Z,15.95
2022-12-09T17:53:50.335Z,15.96
2022-12-09T17:59:05.533Z,15.97
2022-12-09T18:04:09.676Z,15.96
2022-12-09T18:09:16.264Z,15.97
2022-12-09T18:14:20.041Z,15.97
2022-12-09T18:19:23.508Z,15.97
2022-12-09T18:24:28.630Z,15.96
2022-12-09T18:29:32.273Z,15.96
2022-12-09T18:34:35.685Z,15.94
2022-12-09T18:39:39.082Z,15.90
2022-12-09T18:44:42.845Z,15.84
2022-12-09T18:49:46.625Z,15.86
2022-12-09T18:54:50.338Z,15.85
2022-12-09T18:59:54.840Z,15.82
2022-12-09T19:04:58.230Z,15.82
2022-12-09T19:10:01.695Z,15.83
2022-12-09T19:15:07.929Z,15.82
2022-12-09T19:20:11.581Z,15.85
2022-12-09T19:25:14.964Z,15.86
2022-12-09T19:30:18.507Z,15.85
2022-12-09T19:35:22.226Z,15.83
2022-12-09T19:40:25.729Z,15.80
2022-12-09T19:45:29.116Z,15.80
2022-12-09T19:50:32.542Z,15.79
2022-12-09T19:55:36.187Z,15.79
2022-12-09T20:00:41.556Z,15.77
2022-12-09T20:05:53.747Z,15.76
2022-12-09T20:10:57.153Z,15.78
2022-12-09T20:16:08.846Z,15.76
2022-12-09T20:21:13.610Z,15.79
2022-12-09T20:26:26.141Z,15.81
2022-12-09T20:31:31.659Z,15.80
2022-12-09T20:36:36.578Z,15.76
2022-12-09T20:41:41.213Z,15.72
2022-12-09T20:46:50.945Z,15.69
2022-12-09T20:51:54.620Z,15.65
2022-12-09T20:56:58.203Z,15.61
2022-12-09T21:02:01.755Z,15.57
2022-12-09T21:07:06.140Z,15.55
2022-12-09T21:12:10.885Z,15.56
2022-12-09T21:17:14.263Z,15.52
2022-12-09T21:22:17.757Z,15.55
2022-12-09T21:27:21.064Z,15.55
2022-12-09T21:32:25.313Z,15.60
2022-12-09T21:37:29.619Z,15.63
2022-12-09T21:42:34.513Z,15.62
2022-12-09T21:47:37.895Z,15.53
2022-12-09T21:52:41.509Z,15.53
2022-12-09T21:57:45.341Z,15.50
2022-12-09T22:02:52.282Z,15.45
2022-12-09T22:07:56.632Z,15.44
2022-12-09T22:12:59.952Z,15.42
2022-12-09T22:18:03.358Z,15.37
2022-12-09T22:23:06.868Z,15.33
2022-12-09T22:28:10.450Z,15.29
2022-12-09T22:33:13.816Z,15.22
2022-12-09T22:38:17.273Z,15.16
2022-12-09T22:43:20.612Z,15.08
2022-12-09T22:48:24.474Z,15.03
2022-12-09T22:53:27.776Z,14.96
2022-12-09T22:58:31.641Z,14.94
2022-12-09T23:03:35.225Z,14.93
2022-12-09T23:08:40.285Z,14.92
2022-12-09T23:13:44.536Z,14.88
2022-12-09T23:18:48.424Z,14.93
2022-12-09T23:23:56.812Z,14.93
2022-12-09T23:29:01.788Z,14.94
2022-12-09T23:34:07.526Z,14.94
2022-12-09T23:39:13.730Z,14.94
2022-12-09T23:44:19.094Z,14.94
2022-12-09T23:49:22.522Z,14.91
2022-12-09T23:54:25.839Z,14.89
2022-12-09T23:59:29.107Z,14.87
